createdAt,value
2022-09-20T00:01:39.005Z,95.40
2022-09-20T00:04:07.329Z,95.40
2022-09-20T00:06:36.387Z,95.60
2022-09-20T00:09:05.849Z,95.50
2022-09-20T00:11:35.773Z,95.60
2022-09-20T00:14:06.509Z,95.60
2022-09-20T00:16:37.263Z,95.60
2022-09-20T00:19:06.626Z,95.70
2022-09-20T00:21:38.207Z,95.60
2022-09-20T00:24:06.525Z,95.60
2022-09-20T00:26:34.855Z,95.60
2022-09-20T00:29:03.468Z,95.50
2022-09-20T00:31:31.523Z,95.50
2022-09-20T00:34:17.999Z,95.60
2022-09-20T00:36:46.289Z,95.60
2022-09-20T00:39:15.935Z,95.60
2022-09-20T00:41:44.751Z,95.50
2022-09-20T00:44:49.546Z,95.50
2022-09-20T00:47:43.824Z,95.60
2022-09-20T00:50:35.532Z,95.50
2022-09-20T00:53:17.357Z,95.30
2022-09-20T00:55:57.207Z,95.40
2022-09-20T00:58:28.103Z,95.50
2022-09-20T01:00:58.457Z,95.60
2022-09-20T01:03:32.799Z,95.60
2022-09-20T01:06:04.920Z,95.80
2022-09-20T01:08:35.702Z,95.80
2022-09-20T01:11:04.495Z,95.80
2022-09-20T01:13:32.366Z,95.70
2022-09-20T01:16:03.043Z,95.70
2022-09-20T01:18:33.836Z,95.70
2022-09-20T01:21:03.383Z,95.80
2022-09-20T01:23:45.107Z,95.70
2022-09-20T01:26:52.897Z,95.60
2022-09-20T01:29:35.953Z,95.60
2022-09-20T01:32:11.167Z,95.50
2022-09-20T01:34:47.444Z,95.70
2022-09-20T01:37:45.022Z,95.80
2022-09-20T01:40:39.240Z,95.90
2022-09-20T01:43:31.247Z,96.00
2022-09-20T01:46:02.978Z,96.00
2022-09-20T01:48:37.443Z,96.00
2022-09-20T01:51:05.410Z,96.10
2022-09-20T01:54:10.021Z,96.00
2022-09-20T01:56:43.617Z,96.00
2022-09-20T01:59:35.001Z,96.10
2022-09-20T02:02:08.221Z,96.20
2022-09-20T02:05:11.396Z,96.20
2022-09-20T02:08:09.502Z,96.30
2022-09-20T02:11:14.522Z,96.40
2022-09-20T02:14:23.979Z,96.40
2022-09-20T02:17:08.862Z,96.40
2022-09-20T02:20:01.750Z,96.40
2022-09-20T02:22:58.947Z,96.50
2022-09-20T02:25:29.741Z,96.50
2022-09-20T02:28:16.162Z,96.40
2022-09-20T02:30:56.127Z,96.60
2022-09-20T02:34:05.837Z,96.60
2022-09-20T02:37:11.471Z,96.60
2022-09-20T02:39:59.256Z,96.80
2022-09-20T02:42:55.848Z,96.90
2022-09-20T02:46:02.214Z,97.00
2022-09-20T02:48:45.206Z,97.00
2022-09-20T02:51:24.860Z,97.00
2022-09-20T02:54:14.390Z,97.10
2022-09-20T02:57:16.428Z,97.10
2022-09-20T03:00:02.873Z,97.10
2022-09-20T03:02:45.716Z,97.10
2022-09-20T03:05:42.123Z,97.20
2022-09-20T03:08:20.977Z,97.20
2022-09-20T03:11:10.689Z,97.50
2022-09-20T03:13:56.962Z,97.10
2022-09-20T03:16:52.455Z,97.10
2022-09-20T03:19:45.412Z,97.60
2022-09-20T03:22:45.661Z,97.40
2022-09-20T03:25:34.985Z,97.50
2022-09-20T03:28:18.067Z,97.70
2022-09-20T03:31:08.080Z,97.70
2022-09-20T03:34:05.477Z,97.60
2022-09-20T03:36:36.226Z,97.60
2022-09-20T03:39:40.681Z,97.50
2022-09-20T03:42:31.060Z,97.50
2022-09-20T03:45:40.849Z,97.50
2022-09-20T03:48:46.317Z,97.60
2022-09-20T03:51:33.830Z,97.60
2022-09-20T03:54:19.723Z,97.60
2022-09-20T03:57:04.623Z,97.70
2022-09-20T04:00:04.720Z,97.70
2022-09-20T04:02:39.485Z,97.60
2022-09-20T04:05:15.632Z,97.50
2022-09-20T04:07:52.365Z,97.70
2022-09-20T04:10:52.131Z,97.90
2022-09-20T04:13:40.607Z,97.80
2022-09-20T04:16:37.231Z,97.90
2022-09-20T04:19:21.591Z,98.00
2022-09-20T04:21:52.617Z,98.00
2022-09-20T04:24:45.108Z,98.00
2022-09-20T04:27:26.332Z,98.00
2022-09-20T04:30:29.928Z,98.20
2022-09-20T04:33:02.164Z,98.40
2022-09-20T04:36:06.222Z,98.40
2022-09-20T04:38:36.211Z,98.40
2022-09-20T04:41:31.325Z,98.40
2022-09-20T04:44:00.528Z,98.50
2022-09-20T04:46:57.863Z,98.70
2022-09-20T04:50:12.012Z,98.70
2022-09-20T04:52:56.927Z,98.80
2022-09-20T04:55:56.732Z,98.90
2022-09-20T04:58:52.577Z,99.30
2022-09-20T05:01:40.796Z,99.40
2022-09-20T05:04:48.437Z,99.40
2022-09-20T05:07:34.781Z,99.40
2022-09-20T05:10:15.925Z,99.50
2022-09-20T05:13:06.076Z,99.50
2022-09-20T05:15:51.899Z,99.50
2022-09-20T05:18:55.373Z,99.60
2022-09-20T05:21:46.903Z,99.60
2022-09-20T05:24:33.592Z,99.70
2022-09-20T05:27:42.393Z,99.70
2022-09-20T05:30:32.363Z,99.60
2022-09-20T05:33:21.608Z,99.50
2022-09-20T05:36:12.375Z,99.30
2022-09-20T05:38:53.099Z,99.10
2022-09-20T05:41:39.250Z,99.10
2022-09-20T05:44:20.431Z,99.10
2022-09-20T05:47:15.977Z,98.90
2022-09-20T05:50:05.606Z,98.70
2022-09-20T05:52:50.827Z,98.60
2022-09-20T05:55:47.069Z,98.80
2022-09-20T05:59:09.087Z,98.60
2022-09-20T06:01:57.971Z,98.50
2022-09-20T06:04:53.819Z,98.30
2022-09-20T06:07:32.220Z,98.30
2022-09-20T06:10:34.163Z,98.00
2022-09-20T06:13:32.598Z,98.00
2022-09-20T06:16:07.987Z,97.80
2022-09-20T06:18:51.698Z,97.50
2022-09-20T06:21:50.637Z,97.00
2022-09-20T06:24:27.829Z,96.60
2022-09-20T06:26:58.532Z,96.50
2022-09-20T06:29:40.788Z,96.50
2022-09-20T06:32:08.870Z,96.50
2022-09-20T06:34:37.203Z,96.10
2022-09-20T06:37:48.442Z,96.10
2022-09-20T06:41:20.171Z,96.00
2022-09-20T06:43:49.138Z,95.90
2022-09-20T06:46:18.150Z,95.10
2022-09-20T06:48:46.306Z,93.90
2022-09-20T06:51:14.327Z,93.20
2022-09-20T06:53:42.859Z,94.00
2022-09-20T06:56:20.081Z,93.80
2022-09-20T06:58:48.217Z,93.40
2022-09-20T07:01:29.072Z,93.30
2022-09-20T07:03:59.375Z,93.00
2022-09-20T07:06:29.533Z,93.00
2022-09-20T07:08:57.542Z,92.40
2022-09-20T07:11:26.123Z,92.00
2022-09-20T07:13:56.416Z,91.70
2022-09-20T07:16:24.879Z,91.20
2022-09-20T07:18:53.775Z,90.70
2022-09-20T07:21:22.413Z,90.50
2022-09-20T07:23:51.538Z,90.40
2022-09-20T07:26:21.538Z,90.30
2022-09-20T07:28:50.918Z,90.10
2022-09-20T07:31:20.567Z,89.50
2022-09-20T07:33:48.817Z,88.30
2022-09-20T07:36:19.485Z,88.10
2022-09-20T07:38:53.557Z,89.40
2022-09-20T07:41:23.250Z,90.00
2022-09-20T07:43:54.095Z,90.00
2022-09-20T07:46:24.600Z,90.20
2022-09-20T07:48:52.792Z,90.20
2022-09-20T07:51:20.975Z,90.40
2022-09-20T07:53:49.108Z,90.60
2022-09-20T07:56:19.302Z,90.70
2022-09-20T07:58:52.149Z,90.80
2022-09-20T08:01:22.921Z,91.10
2022-09-20T08:03:52.641Z,91.30
2022-09-20T08:06:21.694Z,91.10
2022-09-20T08:08:51.875Z,90.70
2022-09-20T08:11:27.731Z,90.30
2022-09-20T08:14:12.851Z,89.50
2022-09-20T08:16:45.660Z,89.30
2022-09-20T08:19:22.141Z,89.80
2022-09-20T08:21:53.367Z,89.50
2022-09-20T08:24:21.536Z,90.00
2022-09-20T08:26:49.869Z,88.60
2022-09-20T08:29:17.960Z,88.00
2022-09-20T08:31:47.085Z,87.00
2022-09-20T08:34:17.663Z,86.40
2022-09-20T08:36:52.220Z,84.30
2022-09-20T08:42:39.166Z,82.60
2022-09-20T08:45:34.164Z,82.50
2022-09-20T08:48:08.612Z,81.30
2022-09-20T08:50:38.022Z,79.90
2022-09-20T08:53:06.378Z,78.10
2022-09-20T08:55:37.041Z,78.60
2022-09-20T08:58:08.721Z,78.00
2022-09-20T09:00:39.284Z,77.30
2022-09-20T09:03:40.573Z,76.40
2022-09-20T09:06:18.342Z,73.50
2022-09-20T09:08:49.712Z,72.90
2022-09-20T09:11:20.248Z,74.20
2022-09-20T09:14:31.461Z,73.80
2022-09-20T09:17:01.695Z,73.50
2022-09-20T09:19:44.712Z,74.30
2022-09-20T09:22:18.065Z,73.90
2022-09-20T09:25:17.973Z,73.30
2022-09-20T09:28:07.687Z,73.10
2022-09-20T09:30:38.781Z,73.80
2022-09-20T09:33:30.930Z,72.10
2022-09-20T09:36:04.744Z,71.90
2022-09-20T09:38:38.912Z,70.50
2022-09-20T09:41:26.922Z,69.90
2022-09-20T09:44:11.449Z,69.40
2022-09-20T09:46:40.742Z,69.50
2022-09-20T09:49:24.947Z,70.30
2022-09-20T09:52:06.532Z,68.40
2022-09-20T09:54:37.860Z,68.10
2022-09-20T09:57:20.926Z,67.10
2022-09-20T10:00:21.422Z,66.80
2022-09-20T10:03:02.816Z,66.80
2022-09-20T10:05:36.551Z,66.00
2022-09-20T10:08:31.373Z,66.70
2022-09-20T10:11:26.125Z,66.50
2022-09-20T10:14:04.043Z,65.90
2022-09-20T10:16:56.692Z,64.70
2022-09-20T10:19:55.759Z,63.70
2022-09-20T10:23:06.794Z,63.40
2022-09-20T10:25:58.452Z,61.90
2022-09-20T10:28:48.873Z,61.80
2022-09-20T10:31:44.535Z,60.50
2022-09-20T10:34:31.351Z,60.30
2022-09-20T10:37:01.203Z,58.90
2022-09-20T10:39:34.409Z,57.80
2022-09-20T10:42:34.252Z,56.20
2022-09-20T10:45:36.296Z,55.50
2022-09-20T10:48:30.067Z,55.40
2022-09-20T10:51:44.167Z,54.60
2022-09-20T10:54:35.111Z,52.90
2022-09-20T10:57:29.747Z,52.50
2022-09-20T11:00:03.852Z,52.00
2022-09-20T11:02:42.698Z,51.50
2022-09-20T11:05:10.625Z,50.90
2022-09-20T11:07:59.383Z,51.00
2022-09-20T11:10:39.950Z,49.90
2022-09-20T11:13:18.697Z,48.80
2022-09-20T11:15:59.877Z,49.20
2022-09-20T11:18:59.315Z,49.20
2022-09-20T11:21:49.990Z,48.90
2022-09-20T11:24:35.735Z,48.10
2022-09-20T11:27:14.877Z,47.30
2022-09-20T11:30:01.375Z,47.40
2022-09-20T11:32:55.810Z,46.10
2022-09-20T11:35:47.423Z,46.40
2022-09-20T11:38:55.056Z,46.00
2022-09-20T11:41:29.794Z,46.60
2022-09-20T11:44:04.920Z,46.10
2022-09-20T11:47:08.945Z,46.30
2022-09-20T11:50:00.566Z,46.30
2022-09-20T11:52:58.918Z,46.10
2022-09-20T11:55:39.363Z,45.30
2022-09-20T11:58:13.270Z,44.90
2022-09-20T12:00:45.485Z,44.70
2022-09-20T12:03:27.925Z,44.40
2022-09-20T12:06:07.271Z,43.70
2022-09-20T12:08:41.218Z,43.90
2022-09-20T12:11:15.227Z,43.60
2022-09-20T12:14:04.003Z,43.60
2022-09-20T12:16:49.643Z,44.10
2022-09-20T12:19:39.470Z,43.90
2022-09-20T12:22:10.605Z,44.50
2022-09-20T12:24:45.107Z,44.20
2022-09-20T12:27:42.458Z,44.60
2022-09-20T12:30:20.949Z,44.90
2022-09-20T12:32:57.774Z,44.00
2022-09-20T12:35:39.500Z,44.10
2022-09-20T12:38:23.360Z,44.60
2022-09-20T12:41:09.374Z,44.90
2022-09-20T12:43:48.451Z,45.00
2022-09-20T12:46:27.550Z,45.20
2022-09-20T12:49:40.039Z,44.60
2022-09-20T12:52:43.306Z,45.10
2022-09-20T12:55:35.365Z,44.90
2022-09-20T12:58:15.249Z,45.50
2022-09-20T13:00:52.687Z,45.40
2022-09-20T13:03:36.830Z,45.20
2022-09-20T13:06:09.198Z,44.80
2022-09-20T13:08:43.307Z,45.10
2022-09-20T13:11:28.741Z,45.60
2022-09-20T13:14:23.281Z,45.70
2022-09-20T13:16:59.446Z,45.00
2022-09-20T13:19:30.533Z,44.80
2022-09-20T13:22:11.610Z,44.90
2022-09-20T13:24:48.832Z,45.40
2022-09-20T13:27:23.111Z,46.00
2022-09-20T13:29:52.186Z,45.90
2022-09-20T13:32:26.646Z,46.30
2022-09-20T13:35:13.445Z,46.50
2022-09-20T13:38:09.187Z,47.10
2022-09-20T13:40:39.899Z,48.60
2022-09-20T13:43:28.653Z,50.70
2022-09-20T13:46:00.279Z,53.20
2022-09-20T13:48:30.240Z,54.60
2022-09-20T13:50:59.078Z,54.60
2022-09-20T13:53:46.587Z,53.00
2022-09-20T13:56:29.024Z,52.60
2022-09-20T13:59:01.460Z,51.60
2022-09-20T14:01:37.195Z,51.60
2022-09-20T14:04:18.021Z,51.60
2022-09-20T14:06:46.684Z,50.50
2022-09-20T14:09:27.119Z,50.10
2022-09-20T14:11:56.563Z,49.10
2022-09-20T14:14:26.111Z,48.50
2022-09-20T14:16:57.005Z,48.20
2022-09-20T14:19:39.431Z,48.20
2022-09-20T14:22:08.618Z,47.60
2022-09-20T14:24:37.793Z,48.40
2022-09-20T14:27:21.504Z,49.00
2022-09-20T14:29:51.781Z,49.30
2022-09-20T14:32:20.278Z,49.00
2022-09-20T14:35:01.540Z,49.10
2022-09-20T14:37:43.756Z,49.40
2022-09-20T14:40:22.999Z,49.90
2022-09-20T14:43:04.805Z,50.40
2022-09-20T14:45:34.215Z,50.80
2022-09-20T14:48:10.297Z,50.90
2022-09-20T14:50:42.685Z,50.80
2022-09-20T14:53:19.566Z,51.20
2022-09-20T14:56:06.096Z,51.90
2022-09-20T14:58:55.557Z,52.40
2022-09-20T15:01:26.412Z,52.80
2022-09-20T15:03:54.941Z,54.10
2022-09-20T15:06:23.080Z,55.20
2022-09-20T15:08:51.477Z,55.90
2022-09-20T15:11:19.977Z,56.90
2022-09-20T15:13:48.292Z,58.10
2022-09-20T15:16:20.622Z,59.10
2022-09-20T15:18:49.220Z,60.00
2022-09-20T15:21:17.070Z,60.60
2022-09-20T15:23:45.373Z,61.10
2022-09-20T15:26:15.494Z,61.90
2022-09-20T15:28:43.722Z,61.90
2022-09-20T15:31:11.719Z,62.30
2022-09-20T15:33:40.044Z,62.20
2022-09-20T15:36:09.027Z,62.40
2022-09-20T15:38:37.161Z,62.90
2022-09-20T15:41:05.166Z,62.80
2022-09-20T15:43:33.145Z,63.00
2022-09-20T15:46:19.538Z,62.90
2022-09-20T15:48:47.443Z,63.10
2022-09-20T15:51:16.396Z,63.90
2022-09-20T15:53:55.474Z,64.10
2022-09-20T15:56:32.125Z,64.60
2022-09-20T15:59:02.687Z,63.90
2022-09-20T16:01:37.242Z,62.30
2022-09-20T16:04:12.930Z,61.50
2022-09-20T16:06:43.333Z,61.60
2022-09-20T16:09:12.439Z,62.80
2022-09-20T16:11:40.854Z,64.20
2022-09-20T16:14:08.936Z,65.80
2022-09-20T16:16:40.425Z,67.20
2022-09-20T16:19:25.340Z,68.30
2022-09-20T16:21:58.946Z,69.10
2022-09-20T16:24:30.972Z,70.10
2022-09-20T16:27:01.777Z,70.60
2022-09-20T16:29:31.132Z,71.30
2022-09-20T16:32:00.738Z,71.80
2022-09-20T16:34:32.191Z,72.60
2022-09-20T16:37:06.159Z,72.90
2022-09-20T16:39:35.155Z,73.40
2022-09-20T16:42:05.535Z,73.90
2022-09-20T16:44:36.197Z,74.40
2022-09-20T16:47:10.393Z,74.80
2022-09-20T16:49:40.367Z,74.80
2022-09-20T16:52:09.938Z,75.30
2022-09-20T16:54:37.960Z,75.80
2022-09-20T16:57:06.594Z,76.30
2022-09-20T16:59:34.474Z,76.70
2022-09-20T17:02:12.487Z,77.40
2022-09-20T17:04:41.052Z,77.80
2022-09-20T17:07:09.218Z,78.20
2022-09-20T17:09:37.498Z,78.70
2022-09-20T17:12:09.719Z,79.10
2022-09-20T17:14:37.898Z,79.40
2022-09-20T17:17:05.921Z,79.70
2022-09-20T17:19:34.365Z,79.90
2022-09-20T17:22:02.740Z,80.90
2022-09-20T17:24:31.079Z,80.30
2022-09-20T17:26:59.689Z,80.50
2022-09-20T17:29:30.767Z,80.90
2022-09-20T17:32:00.314Z,81.80
2022-09-20T17:34:29.858Z,82.30
2022-09-20T17:37:02.201Z,82.60
2022-09-20T17:39:30.152Z,83.10
2022-09-20T17:42:01.824Z,83.30
2022-09-20T17:44:30.110Z,83.90
2022-09-20T17:46:58.174Z,84.50
2022-09-20T17:49:28.139Z,84.70
2022-09-20T17:51:57.000Z,85.50
2022-09-20T17:54:25.218Z,85.80
2022-09-20T17:56:56.541Z,86.10
2022-09-20T17:59:25.484Z,86.40
2022-09-20T18:01:54.758Z,86.40
2022-09-20T18:04:24.945Z,86.60
2022-09-20T18:06:55.148Z,86.60
2022-09-20T18:09:25.234Z,86.80
2022-09-20T18:11:55.251Z,87.30
2022-09-20T18:14:25.854Z,87.50
2022-09-20T18:17:01.576Z,87.40
2022-09-20T18:19:33.901Z,87.70
2022-09-20T18:22:04.435Z,88.00
2022-09-20T18:24:32.996Z,88.10
2022-09-20T18:27:01.619Z,88.20
2022-09-20T18:29:33.846Z,88.50
2022-09-20T18:32:02.568Z,88.60
2022-09-20T18:34:34.593Z,88.50
2022-09-20T18:37:04.184Z,88.70
2022-09-20T18:39:33.612Z,88.70
2022-09-20T18:42:03.769Z,88.70
2022-09-20T18:44:34.127Z,88.90
2022-09-20T18:47:04.257Z,89.00
2022-09-20T18:49:32.681Z,89.10
2022-09-20T18:52:00.849Z,89.20
2022-09-20T18:54:33.763Z,89.20
2022-09-20T18:57:02.471Z,89.40
2022-09-20T18:59:30.692Z,89.60
2022-09-20T19:02:23.680Z,89.80
2022-09-20T19:05:14.951Z,89.90
2022-09-20T19:08:02.072Z,90.10
2022-09-20T19:10:51.799Z,90.30
2022-09-20T19:13:47.476Z,90.40
2022-09-20T19:16:27.662Z,90.50
2022-09-20T19:19:37.403Z,90.60
2022-09-20T19:22:22.356Z,90.70
2022-09-20T19:24:50.732Z,90.60
2022-09-20T19:27:18.961Z,90.60
2022-09-20T19:29:47.628Z,90.80
2022-09-20T19:32:21.680Z,90.70
2022-09-20T19:34:56.445Z,90.70
2022-09-20T19:37:49.466Z,90.80
2022-09-20T19:41:00.224Z,90.90
2022-09-20T19:43:40.785Z,90.80
2022-09-20T19:46:38.336Z,90.90
2022-09-20T19:49:15.292Z,90.90
2022-09-20T19:51:44.871Z,91.00
2022-09-20T19:54:21.804Z,90.90
2022-09-20T19:56:59.921Z,90.80
2022-09-20T19:59:28.954Z,90.80
2022-09-20T20:01:58.135Z,90.80
2022-09-20T20:04:26.707Z,90.90
2022-09-20T20:07:07.905Z,90.90
2022-09-20T20:09:56.519Z,91.00
2022-09-20T20:13:30.142Z,91.10
2022-09-20T20:16:04.216Z,91.00
2022-09-20T20:18:58.068Z,91.00
2022-09-20T20:21:38.677Z,91.20
2022-09-20T20:24:51.400Z,90.90
2022-09-20T20:27:21.344Z,90.90
2022-09-20T20:29:49.904Z,90.80
2022-09-20T20:32:17.968Z,90.80
2022-09-20T20:34:47.471Z,90.80
2022-09-20T20:37:16.580Z,91.00
2022-09-20T20:39:44.805Z,91.00
2022-09-20T20:42:13.465Z,91.00
2022-09-20T20:44:42.792Z,91.00
2022-09-20T20:47:11.921Z,91.00
2022-09-20T20:49:40.549Z,91.00
2022-09-20T20:52:09.423Z,91.00
2022-09-20T20:54:37.865Z,91.10
2022-09-20T20:57:06.168Z,91.20
2022-09-20T20:59:34.342Z,91.20
2022-09-20T21:02:07.111Z,91.40
2022-09-20T21:04:37.707Z,91.10
2022-09-20T21:07:06.500Z,91.10
2022-09-20T21:09:34.759Z,91.00
2022-09-20T21:12:03.649Z,91.10
2022-09-20T21:14:34.324Z,91.10
2022-09-20T21:17:03.861Z,91.10
2022-09-20T21:19:32.003Z,91.20
2022-09-20T21:22:01.271Z,91.20
2022-09-20T21:24:29.590Z,91.30
2022-09-20T21:26:57.474Z,91.30
2022-09-20T21:29:25.731Z,91.40
2022-09-20T21:31:53.880Z,91.50
2022-09-20T21:34:22.148Z,91.40
2022-09-20T21:36:50.445Z,91.60
2022-09-20T21:39:18.667Z,91.50
2022-09-20T21:41:47.356Z,91.50
2022-09-20T21:44:15.422Z,91.60
2022-09-20T21:46:43.631Z,91.70
2022-09-20T21:49:13.480Z,91.80
2022-09-20T21:51:46.236Z,91.80
2022-09-20T21:54:15.526Z,91.90
2022-09-20T21:56:43.682Z,91.90
2022-09-20T21:59:12.064Z,92.00
2022-09-20T22:01:41.515Z,92.10
2022-09-20T22:04:13.543Z,92.10
2022-09-20T22:06:45.669Z,92.00
2022-09-20T22:09:16.640Z,92.10
2022-09-20T22:11:49.681Z,92.10
2022-09-20T22:14:20.033Z,92.30
2022-09-20T22:16:51.582Z,92.20
2022-09-20T22:19:22.940Z,92.30
2022-09-20T22:21:53.303Z,92.30
2022-09-20T22:24:21.769Z,92.40
2022-09-20T22:26:51.624Z,92.30
2022-09-20T22:29:20.138Z,92.30
2022-09-20T22:31:50.670Z,92.50
2022-09-20T22:34:21.351Z,92.50
2022-09-20T22:36:49.902Z,92.70
2022-09-20T22:39:18.229Z,92.80
2022-09-20T22:41:48.310Z,92.80
2022-09-20T22:44:17.145Z,93.00
2022-09-20T22:46:45.300Z,93.20
2022-09-20T22:49:13.210Z,93.10
2022-09-20T22:51:41.390Z,93.20
2022-09-20T22:54:11.582Z,93.20
2022-09-20T22:56:42.942Z,93.30
2022-09-20T22:59:13.609Z,93.30
2022-09-20T23:01:46.515Z,93.30
2022-09-20T23:04:20.285Z,93.40
2022-09-20T23:06:55.258Z,93.40
2022-09-20T23:09:25.959Z,93.50
2022-09-20T23:11:54.492Z,93.50
2022-09-20T23:14:23.505Z,93.60
2022-09-20T23:16:51.779Z,93.60
2022-09-20T23:19:19.859Z,93.70
2022-09-20T23:21:47.964Z,93.70
2022-09-20T23:24:17.188Z,93.70
2022-09-20T23:26:46.124Z,93.70
2022-09-20T23:29:16.331Z,93.70
2022-09-20T23:31:47.542Z,93.70
2022-09-20T23:34:16.783Z,93.80
2022-09-20T23:36:45.493Z,93.80
2022-09-20T23:39:14.536Z,93.90
2022-09-20T23:41:48.406Z,94.00
2022-09-20T23:44:19.985Z,94.00
2022-09-20T23:46:48.114Z,94.20
2022-09-20T23:49:16.478Z,94.20
2022-09-20T23:51:44.374Z,94.40
2022-09-20T23:54:13.034Z,94.30
2022-09-20T23:56:43.138Z,94.30
2022-09-20T23:59:11.766Z,94.30
